createdAt,value
2022-12-03T00:03:16.387Z,1.71
2022-12-03T00:13:19.114Z,1.69
2022-12-03T00:23:20.951Z,1.51
2022-12-03T00:33:22.874Z,1.50
2022-12-03T00:43:24.803Z,1.49
2022-12-03T00:53:26.569Z,1.54
2022-12-03T01:03:32.760Z,1.60
2022-12-03T01:13:35.424Z,1.70
2022-12-03T01:23:37.098Z,1.58
2022-12-03T01:33:44.508Z,1.67
2022-12-03T01:43:49.754Z,1.81
2022-12-03T01:53:51.668Z,1.77
2022-12-03T02:03:53.437Z,1.90
2022-12-03T02:13:59.519Z,1.70
2022-12-03T02:24:10.094Z,1.63
2022-12-03T02:34:31.835Z,1.68
2022-12-03T02:44:33.516Z,1.61
2022-12-03T02:54:37.343Z,1.75
2022-12-03T03:04:41.256Z,1.82
2022-12-03T03:14:43.256Z,1.83
2022-12-03T03:24:45.118Z,1.86
2022-12-03T03:34:47.010Z,1.92
2022-12-03T03:44:56.899Z,1.97
2022-12-03T03:55:00.790Z,1.94
2022-12-03T04:05:07.078Z,1.91
2022-12-03T04:15:10.527Z,1.84
2022-12-03T04:25:31.078Z,1.94
2022-12-03T04:35:44.026Z,1.78
2022-12-03T04:45:46.854Z,1.82
2022-12-03T04:55:48.540Z,1.71
2022-12-03T05:05:50.129Z,1.42
2022-12-03T05:15:52.015Z,1.42
2022-12-03T05:25:58.772Z,1.53
2022-12-03T05:36:00.474Z,1.56
2022-12-03T05:46:05.269Z,1.65
2022-12-03T05:56:16.796Z,1.69
2022-12-03T06:06:19.318Z,1.66
2022-12-03T06:16:21.089Z,1.94
2022-12-03T06:26:23.223Z,2.03
2022-12-03T06:36:28.004Z,2.09
2022-12-03T06:46:29.745Z,2.15
2022-12-03T06:56:36.770Z,2.26
2022-12-03T07:06:41.175Z,2.43
2022-12-03T07:16:46.199Z,2.53
2022-12-03T07:26:55.000Z,2.48
2022-12-03T07:36:58.099Z,2.69
2022-12-03T07:46:59.950Z,2.79
2022-12-03T07:57:02.165Z,3.01
2022-12-03T08:07:04.133Z,3.43
2022-12-03T08:17:12.385Z,3.58
2022-12-03T08:27:20.419Z,4.11
2022-12-03T08:37:22.244Z,5.13
2022-12-03T08:47:25.877Z,6.09
2022-12-03T08:57:32.457Z,4.75
2022-12-03T09:07:34.247Z,4.86
2022-12-03T09:17:37.551Z,5.72
2022-12-03T09:27:39.224Z,6.57
2022-12-03T09:37:45.923Z,7.37
2022-12-03T09:47:49.652Z,6.90
2022-12-03T09:57:57.824Z,6.91
2022-12-03T10:08:10.893Z,8.25
2022-12-03T10:18:24.688Z,10.75
2022-12-03T10:28:34.745Z,13.09
2022-12-03T10:38:36.393Z,14.57
2022-12-03T10:48:38.209Z,14.92
2022-12-03T10:58:42.063Z,11.51
2022-12-03T11:08:49.189Z,10.55
2022-12-03T11:19:01.261Z,10.84
2022-12-03T11:29:03.563Z,13.24
2022-12-03T11:39:05.237Z,14.76
2022-12-03T11:49:25.291Z,15.18
2022-12-03T11:59:27.787Z,13.88
2022-12-03T12:09:49.168Z,13.52
2022-12-03T12:19:54.536Z,12.32
2022-12-03T12:30:06.728Z,10.21
2022-12-03T12:40:15.631Z,9.63
2022-12-03T12:50:18.806Z,8.40
2022-12-03T13:00:23.456Z,8.39
2022-12-03T13:10:32.890Z,7.56
2022-12-03T13:20:34.646Z,7.18
2022-12-03T13:30:37.311Z,7.08
2022-12-03T13:41:06.336Z,6.98
2022-12-03T13:51:30.397Z,6.91
2022-12-03T14:01:33.105Z,6.55
2022-12-03T14:11:53.460Z,6.40
2022-12-03T14:21:55.335Z,6.41
2022-12-03T14:31:57.829Z,6.18
2022-12-03T14:42:15.278Z,6.01
2022-12-03T14:52:18.940Z,5.74
2022-12-03T15:02:38.489Z,5.58
2022-12-03T15:12:40.294Z,5.45
2022-12-03T15:22:41.861Z,5.34
2022-12-03T15:32:54.869Z,5.13
2022-12-03T15:42:57.100Z,4.85
2022-12-03T15:53:04.840Z,4.57
2022-12-03T16:03:17.212Z,4.33
2022-12-03T16:13:21.714Z,4.20
2022-12-03T16:23:23.538Z,4.10
2022-12-03T16:33:27.975Z,3.93
2022-12-03T16:43:34.225Z,3.75
2022-12-03T16:53:36.252Z,3.71
2022-12-03T17:03:39.140Z,3.68
2022-12-03T17:13:41.081Z,3.46
2022-12-03T17:23:45.152Z,3.49
2022-12-03T17:33:46.857Z,3.26
2022-12-03T17:43:50.851Z,3.08
2022-12-03T17:53:54.527Z,3.11
2022-12-03T18:03:57.888Z,2.96
2022-12-03T18:14:01.841Z,2.89
2022-12-03T18:24:04.200Z,2.73
2022-12-03T18:34:06.238Z,2.74
2022-12-03T18:44:11.513Z,2.68
2022-12-03T18:54:14.612Z,2.77
2022-12-03T19:04:16.322Z,2.65
2022-12-03T19:14:18.471Z,2.65
2022-12-03T19:24:25.156Z,2.59
2022-12-03T19:34:27.658Z,2.58
2022-12-03T19:44:30.966Z,2.63
2022-12-03T19:54:32.664Z,2.86
2022-12-03T20:04:34.367Z,2.80
2022-12-03T20:14:36.385Z,2.70
2022-12-03T20:24:38.483Z,2.53
2022-12-03T20:34:44.800Z,2.62
2022-12-03T20:45:04.297Z,2.58
2022-12-03T20:55:07.843Z,2.80
2022-12-03T21:05:10.944Z,2.82
2022-12-03T21:15:12.851Z,2.82
2022-12-03T21:25:15.884Z,2.76
2022-12-03T21:35:19.066Z,2.71
2022-12-03T21:45:21.094Z,2.90
2022-12-03T21:55:22.976Z,2.78
2022-12-03T22:05:24.718Z,3.09
2022-12-03T22:15:26.438Z,3.34
2022-12-03T22:25:28.406Z,3.47
2022-12-03T22:35:30.322Z,3.56
2022-12-03T22:45:32.185Z,3.61
2022-12-03T22:55:40.764Z,3.64
2022-12-03T23:05:42.503Z,3.60
2022-12-03T23:15:52.491Z,3.69
2022-12-03T23:26:01.279Z,3.65
2022-12-03T23:36:08.324Z,3.47
2022-12-03T23:46:17.186Z,3.35
2022-12-03T23:56:28.495Z,3.19
